Погода Будимировона 2 недели

Тверская область, Россия

18 - 31 мая
  • 18мая
    Сегодня
    +6°
    +19°
    Ясно и безоблачно
    ВремяПогодаТемператураВлажностьДавлениеВетер, м/сВероятность осадков
    00:00Ясно и безоблачно+9°C85 %749 мм2.1 м/с2 %
    03:00Ясно и безоблачно+7°C91 %750 мм2.2 м/с2 %
    06:00Ясно и безоблачно+8°C81 %751 мм2.1 м/с2 %
    09:00Ясно и безоблачно+14°C55 %751 мм1.8 м/с2 %
    12:00Ясно и безоблачно+17°C50 %751 мм3.1 м/с2 %
    15:00Ясно и безоблачно+18°C43 %750 мм3.2 м/с2 %
    18:00Ясно и безоблачно+17°C46 %750 мм3.1 м/с2 %
    21:00Ясно и безоблачно+12°C64 %750 мм3.0 м/с2 %
  • 19мая
    Воскресенье
    +8°
    +19°
    Облачно с прояснениями
    ВремяПогодаТемператураВлажностьДавлениеВетер, м/сВероятность осадков
    00:00Ясно и безоблачно+9°C75 %750 мм3.0 м/с2 %
    03:00Ясно и безоблачно+7°C77 %751 мм2.8 м/с2 %
    06:00Ясно и безоблачно+8°C80 %751 мм2.8 м/с2 %
    09:00Ясно и безоблачно+15°C60 %751 мм2.8 м/с2 %
    12:00Ясно и безоблачно+17°C52 %751 мм2.3 м/с2 %
    15:00Облачно с прояснениями+19°C42 %750 мм2.4 м/с2 %
    18:00Практически безоблачно+19°C42 %749 мм2.2 м/с2 %
    21:00Ясно и безоблачно+13°C65 %748 мм3.1 м/с2 %
  • 20мая
    Понедельник
    +11°
    +21°
    Небольшая облачность
    ВремяПогодаТемператураВлажностьДавлениеВетер, м/сВероятность осадков
    00:00Ясно и безоблачно+10°C65 %749 мм4.5 м/с2 %
    03:00Практически безоблачно+9°C73 %748 мм3.9 м/с2 %
    06:00Практически безоблачно+10°C75 %748 мм3.7 м/с2 %
    09:00Облачно с прояснениями+16°C61 %748 мм3.1 м/с2 %
    12:00Небольшая облачность+20°C44 %748 мм3.1 м/с4 %
    15:00Небольшая облачность+20°C43 %747 мм3.2 м/с2 %
    18:00Небольшая облачность+20°C45 %747 мм2.4 м/с2 %
    21:00Ясно и безоблачно+15°C63 %747 мм3.0 м/с2 %
  • 21мая
    Вторник
    +8°
    +22°
    Облачно с прояснениями
    ВремяПогодаТемператураВлажностьДавлениеВетер, м/сВероятность осадков
    00:00Ясно и безоблачно+13°C74 %747 мм3.0 м/с2 %
    03:00Ясно и безоблачно+12°C82 %747 мм2.5 м/с2 %
    06:00Ясно и безоблачно+13°C81 %748 мм2.1 м/с7 %
    09:00Небольшая облачность+18°C66 %749 мм1.2 м/с5 %
    12:00Ясно и безоблачно+21°C54 %749 мм1.2 м/с24 %
    15:00Облачно с прояснениями+21°C51 %748 мм1.8 м/с40 %
    18:00Небольшая облачность+18°C76 %749 мм1.6 м/с42 %
    21:00Практически безоблачно+15°C90 %749 мм1.9 м/с9 %
  • 22мая
    Среда
    +6°
    +20°
    Ясно и безоблачно
    ВремяПогодаТемператураВлажностьДавлениеВетер, м/сВероятность осадков
    00:00Практически безоблачно+12°C61 %750 мм2.9 м/с6 %
    03:00Ясно и безоблачно+9°C73 %750 мм2.2 м/с4 %
    06:00Ясно и безоблачно+10°C79 %751 мм2.5 м/с4 %
    09:00Ясно и безоблачно+16°C63 %751 мм2.1 м/с6 %
    12:00Ясно и безоблачно+19°C46 %751 мм2.5 м/с9 %
    15:00Ясно и безоблачно+19°C40 %751 мм3.3 м/с14 %
    18:00Небольшая облачность+18°C40 %750 мм2.0 м/с7 %
    21:00Ясно и безоблачно+14°C58 %751 мм3.0 м/с3 %
Мы используем cookies
Соглашаюсь